Daniel Field Augusta US
ICAO: KDNL
IATA: DNL
Category: Medium
Scheduled Services: No

Elevation: 423 ft
TransAlt. 18000 ft.

Airport Communications:
AUGUSTA APP/DEP:126.8
ASOS:135.275
CLNC DEL:128.1
MACON RDO:122.3
CTAF/UNICOM:123.05

KDNL Zoom In..

Runways:

(A) RW 05 length 4002 ft width 100 ft
---- / hdg 50

(B) RW 11 length 3733 ft width 100 ft
---- / hdg 108

(C) RW 23 length 4002 ft width 100 ft
---- / hdg 230

(D) RW 29 length 3733 ft width 100 ft
---- / hdg 288

Location; KDNL
Day. 13 / Time. 12.53 Zulu
* Altimeter: 29.87
* Temperature: 26° c. 78.8°f.
* Wind from: 000° Speed 00 kn.
Dewpoint: 21° c.
Visibility: 10 Statute Miles.
Clouds: Clear (automated report).

KDNL 131253Z AUTO 00000KT 10SM CLR 26/21 A2987 RMK AO2 SLP108 T02610211

Going to: --> -->


Wind - Calm.

 
 
jpsmedia worldairports.se 2020   terms of use